createdAt,value
2018-02-13T00:01:50.146Z,94749.03
2018-02-13T00:04:18.564Z,94748.56
2018-02-13T00:06:47.398Z,94743.71
2018-02-13T00:09:15.815Z,94744.69
2018-02-13T00:11:44.229Z,94743.11
2018-02-13T00:14:12.634Z,94745.41
2018-02-13T00:16:41.029Z,94749.60
2018-02-13T00:19:09.470Z,94744.33
2018-02-13T00:21:37.895Z,94748.69
2018-02-13T00:24:06.307Z,94742.31
2018-02-13T00:26:34.696Z,94751.17
2018-02-13T00:29:03.104Z,94750.97
2018-02-13T00:31:31.557Z,94748.70
2018-02-13T00:33:59.961Z,94742.00
2018-02-13T00:36:28.325Z,94741.27
2018-02-13T00:38:56.722Z,94744.88
2018-02-13T00:41:25.156Z,94741.06
2018-02-13T00:43:53.591Z,94745.88
2018-02-13T00:46:21.970Z,94749.66
2018-02-13T00:48:51.054Z,94737.40
2018-02-13T00:51:19.466Z,94738.62
2018-02-13T00:53:47.865Z,94743.31
2018-02-13T00:56:16.275Z,94739.49
2018-02-13T00:58:44.671Z,94737.74
2018-02-13T01:01:13.129Z,94738.08
2018-02-13T01:03:41.588Z,94740.85
2018-02-13T01:06:10.031Z,94740.21
2018-02-13T01:08:38.400Z,94745.75
2018-02-13T01:11:06.823Z,94739.61
2018-02-13T01:13:35.289Z,94735.56
2018-02-13T01:16:03.759Z,94741.14
2018-02-13T01:18:32.170Z,94739.83
2018-02-13T01:21:00.575Z,94736.70
2018-02-13T01:23:28.974Z,94739.63
2018-02-13T01:25:57.428Z,94740.10
2018-02-13T01:28:25.842Z,94745.97
2018-02-13T01:30:54.593Z,94738.11
2018-02-13T01:33:23.028Z,94741.62
2018-02-13T01:35:51.436Z,94735.00
2018-02-13T01:38:19.841Z,94739.23
2018-02-13T01:40:48.265Z,94732.30
2018-02-13T01:43:16.722Z,94730.83
2018-02-13T01:45:45.129Z,94728.81
2018-02-13T01:48:13.532Z,94736.28
2018-02-13T01:50:41.949Z,94727.19
2018-02-13T01:53:10.351Z,94730.62
2018-02-13T01:55:38.900Z,94733.58
2018-02-13T01:58:07.314Z,94731.44
2018-02-13T02:00:35.789Z,94726.48
2018-02-13T02:03:04.205Z,94734.37
2018-02-13T02:05:32.741Z,94727.67
2018-02-13T02:08:01.107Z,94731.77
2018-02-13T02:10:29.516Z,94732.60
2018-02-13T02:12:57.988Z,94734.17
2018-02-13T02:15:26.494Z,94733.43
2018-02-13T02:17:54.894Z,94735.77
2018-02-13T02:20:23.272Z,94727.83
2018-02-13T02:22:51.787Z,94732.72
2018-02-13T02:25:20.329Z,94734.67
2018-02-13T02:27:48.726Z,94731.55
2018-02-13T02:30:17.140Z,94737.92
2018-02-13T02:32:45.617Z,94725.17
2018-02-13T02:35:14.010Z,94729.30
2018-02-13T02:37:42.756Z,94722.53
2018-02-13T02:40:11.157Z,94728.22
2018-02-13T02:42:51.304Z,94721.67
2018-02-13T02:45:19.707Z,94720.22
2018-02-13T02:47:48.111Z,94718.33
2018-02-13T02:50:16.531Z,94719.33
2018-02-13T02:52:44.930Z,94717.71
2018-02-13T02:55:13.486Z,94716.88
2018-02-13T02:57:41.915Z,94716.49
2018-02-13T03:00:10.319Z,94712.41
2018-02-13T03:02:38.717Z,94718.39
2018-02-13T03:05:07.105Z,94709.77
2018-02-13T03:07:35.582Z,94709.85
2018-02-13T03:10:03.996Z,94706.53
2018-02-13T03:12:32.377Z,94708.96
2018-02-13T03:15:00.794Z,94709.38
2018-02-13T03:17:29.171Z,94705.52
2018-02-13T03:19:57.726Z,94708.78
2018-02-13T03:22:26.128Z,94710.65
2018-02-13T03:24:54.547Z,94708.69
2018-02-13T03:27:23.037Z,94702.08
2018-02-13T03:29:51.417Z,94709.17
2018-02-13T03:32:19.857Z,94705.05
2018-02-13T03:34:48.331Z,94705.92
2018-02-13T03:37:16.796Z,94698.77
2018-02-13T03:39:45.232Z,94700.62
2018-02-13T03:42:13.622Z,94701.04
2018-02-13T03:44:42.093Z,94700.73
2018-02-13T03:47:10.520Z,94696.40
2018-02-13T03:49:39.087Z,94689.92
2018-02-13T03:52:07.497Z,94691.20
2018-02-13T03:54:55.606Z,94694.03
2018-02-13T03:57:23.990Z,94688.16
2018-02-13T03:59:52.431Z,94696.27
2018-02-13T04:02:20.913Z,94690.31
2018-02-13T04:04:49.302Z,94689.67
2018-02-13T04:07:17.705Z,94689.11
2018-02-13T04:09:46.159Z,94685.09
2018-02-13T04:12:14.554Z,94684.60
2018-02-13T04:14:43.324Z,94685.12
2018-02-13T04:17:11.730Z,94681.20
2018-02-13T04:19:40.120Z,94678.72
2018-02-13T04:22:08.612Z,94677.16
2018-02-13T04:24:36.993Z,94682.76
2018-02-13T04:27:05.474Z,94674.83
2018-02-13T04:29:33.877Z,94680.80
2018-02-13T04:32:02.266Z,94674.60
2018-02-13T04:34:30.728Z,94676.00
2018-02-13T04:36:59.149Z,94667.97
2018-02-13T04:39:27.604Z,94668.14
2018-02-13T04:41:55.999Z,94667.25
2018-02-13T04:44:24.466Z,94665.98
2018-02-13T04:46:52.888Z,94660.09
2018-02-13T04:49:21.271Z,94662.75
2018-02-13T04:51:49.746Z,94659.62
2018-02-13T04:54:18.139Z,94659.63
2018-02-13T04:56:46.509Z,94653.33
2018-02-13T04:59:14.928Z,94656.66
2018-02-13T05:01:43.329Z,94650.78
2018-02-13T05:04:11.863Z,94653.14
2018-02-13T05:06:40.255Z,94658.52
2018-02-13T05:09:08.647Z,94651.48
2018-02-13T05:11:37.046Z,94644.01
2018-02-13T05:14:05.444Z,94651.16
2018-02-13T05:16:34.831Z,94645.06
2018-02-13T05:19:03.230Z,94651.56
2018-02-13T05:21:31.638Z,94645.27
2018-02-13T05:24:00.029Z,94655.86
2018-02-13T05:26:28.404Z,94651.92
2018-02-13T05:28:56.901Z,94654.79
2018-02-13T05:31:25.305Z,94649.95
2018-02-13T05:33:53.706Z,94647.05
2018-02-13T05:36:22.090Z,94650.91
2018-02-13T05:38:50.487Z,94645.73
2018-02-13T05:41:18.927Z,94644.63
2018-02-13T05:43:47.339Z,94643.71
2018-02-13T05:46:15.752Z,94643.05
2018-02-13T05:48:44.258Z,94643.16
2018-02-13T05:51:12.683Z,94646.86
2018-02-13T05:53:41.175Z,94647.63
2018-02-13T05:56:09.564Z,94642.56
2018-02-13T05:58:37.950Z,94636.81
2018-02-13T06:01:06.431Z,94643.90
2018-02-13T06:03:34.822Z,94641.92
2018-02-13T06:06:03.286Z,94639.41
2018-02-13T06:08:31.707Z,94644.77
2018-02-13T06:11:00.131Z,94636.06
2018-02-13T06:13:28.545Z,94641.59
2018-02-13T06:15:56.943Z,94641.60
2018-02-13T06:18:25.404Z,94632.81
2018-02-13T06:20:53.849Z,94636.66
2018-02-13T06:23:22.202Z,94635.02
2018-02-13T06:25:50.605Z,94635.68
2018-02-13T06:28:18.977Z,94629.20
2018-02-13T06:30:47.478Z,94643.55
2018-02-13T06:33:15.864Z,94632.02
2018-02-13T06:35:44.332Z,94630.81
2018-02-13T06:38:12.749Z,94637.41
2018-02-13T06:40:41.315Z,94638.75
2018-02-13T06:43:09.732Z,94631.36
2018-02-13T06:45:38.144Z,94628.61
2018-02-13T06:48:06.603Z,94631.32
2018-02-13T06:50:35.108Z,94626.44
2018-02-13T06:53:03.482Z,94631.95
2018-02-13T06:55:31.893Z,94623.18
2018-02-13T06:58:00.436Z,94630.08
2018-02-13T07:00:28.841Z,94629.55
2018-02-13T07:02:57.257Z,94625.75
2018-02-13T07:05:25.838Z,94634.98
2018-02-13T07:07:54.329Z,94635.94
2018-02-13T07:10:23.072Z,94637.63
2018-02-13T07:12:51.473Z,94629.52
2018-02-13T07:15:19.914Z,94628.59
2018-02-13T07:17:48.329Z,94625.86
2018-02-13T07:20:16.861Z,94622.33
2018-02-13T07:22:45.311Z,94628.70
2018-02-13T07:25:13.697Z,94630.19
2018-02-13T07:27:42.143Z,94632.83
2018-02-13T07:30:10.643Z,94632.48
2018-02-13T07:32:39.061Z,94635.29
2018-02-13T07:35:07.520Z,94636.42
2018-02-13T07:37:35.914Z,94634.75
2018-02-13T07:40:04.357Z,94632.59
2018-02-13T07:42:32.794Z,94635.90
2018-02-13T07:45:01.577Z,94634.98
2018-02-13T07:47:31.354Z,94631.81
2018-02-13T07:49:59.935Z,94626.81
2018-02-13T07:52:28.775Z,94628.83
2018-02-13T07:54:57.372Z,94631.27
2018-02-13T07:57:25.902Z,94631.11
2018-02-13T07:59:54.314Z,94627.25
2018-02-13T08:02:22.703Z,94632.90
2018-02-13T08:04:51.249Z,94633.48
2018-02-13T08:07:19.635Z,94633.35
2018-02-13T08:09:48.022Z,94634.71
2018-02-13T08:12:16.547Z,94628.52
2018-02-13T08:14:44.947Z,94625.45
2018-02-13T08:17:13.486Z,94625.66
2018-02-13T08:19:41.888Z,94621.38
2018-02-13T08:22:10.267Z,94627.98
2018-02-13T08:24:38.678Z,94625.22
2018-02-13T08:27:07.087Z,94622.53
2018-02-13T08:29:35.563Z,94623.16
2018-02-13T08:32:03.960Z,94618.64
2018-02-13T08:34:32.352Z,94620.44
2018-02-13T08:37:00.755Z,94619.63
2018-02-13T08:39:29.145Z,94615.58
2018-02-13T08:41:57.635Z,94622.61
2018-02-13T08:44:26.044Z,94621.94
2018-02-13T08:46:54.460Z,94614.25
2018-02-13T08:49:22.982Z,94615.41
2018-02-13T08:51:51.380Z,94611.83
2018-02-13T08:54:20.022Z,94608.56
2018-02-13T08:56:48.432Z,94609.72
2018-02-13T08:59:16.926Z,94614.35
2018-02-13T09:01:45.332Z,94611.34
2018-02-13T09:04:13.738Z,94610.98
2018-02-13T09:06:42.511Z,94609.07
2018-02-13T09:09:10.932Z,94615.97
2018-02-13T09:11:39.312Z,94611.05
2018-02-13T09:14:07.694Z,94607.77
2018-02-13T09:16:36.114Z,94598.81
2018-02-13T09:19:04.564Z,94604.17
2018-02-13T09:21:32.945Z,94610.05
2018-02-13T09:24:01.334Z,94609.20
2018-02-13T09:26:29.765Z,94602.41
2018-02-13T09:28:58.145Z,94599.64
2018-02-13T09:31:26.623Z,94602.53
2018-02-13T09:33:55.016Z,94592.83
2018-02-13T09:36:23.422Z,94588.72
2018-02-13T09:38:51.809Z,94587.68
2018-02-13T09:41:20.207Z,94589.73
2018-02-13T09:46:23.542Z,94589.28
2018-02-13T09:48:52.073Z,94590.36
2018-02-13T09:51:20.491Z,94597.52
2018-02-13T09:53:48.900Z,94593.66
2018-02-13T09:56:17.403Z,94599.40
2018-02-13T09:58:45.774Z,94597.39
2018-02-13T10:01:14.247Z,94590.55
2018-02-13T10:03:42.725Z,94589.87
2018-02-13T10:06:11.159Z,94581.19
2018-02-13T10:08:39.582Z,94587.67
2018-02-13T10:11:08.019Z,94586.58
2018-02-13T10:13:36.579Z,94583.65
2018-02-13T10:16:05.004Z,94580.83
2018-02-13T10:18:33.486Z,94577.62
2018-02-13T10:21:01.899Z,94579.66
2018-02-13T10:23:30.359Z,94572.25
2018-02-13T10:25:58.952Z,94564.50
2018-02-13T10:28:27.418Z,94574.55
2018-02-13T10:30:55.824Z,94571.42
2018-02-13T10:33:24.236Z,94572.72
2018-02-13T10:35:52.630Z,94570.03
2018-02-13T10:38:21.214Z,94565.38
2018-02-13T10:40:49.678Z,94563.82
2018-02-13T10:43:18.093Z,94569.64
2018-02-13T10:45:46.500Z,94560.45
2018-02-13T10:48:14.898Z,94554.16
2018-02-13T10:50:43.373Z,94560.22
2018-02-13T10:53:11.761Z,94561.20
2018-02-13T10:55:40.167Z,94565.17
2018-02-13T10:58:08.571Z,94560.44
2018-02-13T11:00:44.130Z,94566.52
2018-02-13T11:03:12.531Z,94555.04
2018-02-13T11:05:41.019Z,94551.21
2018-02-13T11:08:09.865Z,94557.80
2018-02-13T11:10:38.295Z,94553.00
2018-02-13T11:13:06.697Z,94551.44
2018-02-13T11:15:35.098Z,94539.96
2018-02-13T11:18:03.525Z,94545.58
2018-02-13T11:20:32.071Z,94537.81
2018-02-13T11:23:00.545Z,94531.95
2018-02-13T11:25:28.946Z,94531.70
2018-02-13T11:27:57.451Z,94531.09
2018-02-13T11:30:25.875Z,94522.09
2018-02-13T11:32:54.381Z,94519.76
2018-02-13T11:35:22.802Z,94523.32
2018-02-13T11:37:51.309Z,94522.10
2018-02-13T11:40:19.803Z,94524.23
2018-02-13T11:42:48.214Z,94521.70
2018-02-13T11:45:16.783Z,94516.56
2018-02-13T11:47:45.189Z,94515.83
2018-02-13T11:50:13.582Z,94525.09
2018-02-13T11:52:42.007Z,94522.34
2018-02-13T11:55:10.419Z,94522.50
2018-02-13T11:57:38.962Z,94519.08
2018-02-13T12:00:07.822Z,94511.22
2018-02-13T12:02:36.219Z,94510.77
2018-02-13T12:05:04.674Z,94508.84
2018-02-13T12:07:33.073Z,94504.81
2018-02-13T12:10:01.550Z,94505.52
2018-02-13T12:12:29.978Z,94500.06
2018-02-13T12:14:58.520Z,94495.41
2018-02-13T12:17:26.926Z,94493.97
2018-02-13T12:19:55.343Z,94491.45
2018-02-13T12:22:23.817Z,94486.88
2018-02-13T12:24:52.205Z,94489.22
2018-02-13T12:27:20.617Z,94482.72
2018-02-13T12:29:49.034Z,94484.20
2018-02-13T12:32:17.427Z,94478.36
2018-02-13T12:34:45.884Z,94480.97
2018-02-13T12:37:14.296Z,94483.86
2018-02-13T12:42:36.839Z,94470.75
2018-02-13T12:45:05.454Z,94463.65
2018-02-13T12:47:33.877Z,94458.34
2018-02-13T12:50:16.204Z,94463.59
2018-02-13T12:52:44.847Z,94455.94
2018-02-13T12:55:13.351Z,94464.68
2018-02-13T12:57:41.762Z,94467.30
2018-02-13T13:00:10.198Z,94462.97
2018-02-13T13:02:38.615Z,94459.87
2018-02-13T13:05:07.974Z,94451.52
2018-02-13T13:07:36.406Z,94456.41
2018-02-13T13:10:05.040Z,94459.63
2018-02-13T13:12:33.443Z,94455.05
2018-02-13T13:15:01.837Z,94446.25
2018-02-13T13:17:30.261Z,94449.70
2018-02-13T13:19:58.648Z,94446.13
2018-02-13T13:22:27.122Z,94449.06
2018-02-13T13:24:55.537Z,94447.20
2018-02-13T13:27:23.961Z,94440.62
2018-02-13T13:29:52.400Z,94439.53
2018-02-13T13:32:20.795Z,94439.97
2018-02-13T13:34:49.350Z,94434.05
2018-02-13T13:37:17.805Z,94429.86
2018-02-13T13:39:46.257Z,94425.56
2018-02-13T13:42:14.695Z,94424.88
2018-02-13T13:44:43.099Z,94423.36
2018-02-13T13:47:11.506Z,94420.56
2018-02-13T13:49:39.898Z,94413.67
2018-02-13T13:52:08.658Z,94413.45
2018-02-13T13:54:37.062Z,94413.16
2018-02-13T13:57:05.462Z,94404.02
2018-02-13T13:59:33.871Z,94421.41
2018-02-13T14:02:02.273Z,94410.42
2018-02-13T14:04:30.828Z,94406.80
2018-02-13T14:07:00.601Z,94407.72
2018-02-13T14:09:29.036Z,94410.01
2018-02-13T14:11:57.454Z,94410.45
2018-02-13T14:14:26.003Z,94404.17
2018-02-13T14:16:54.417Z,94412.22
2018-02-13T14:19:22.900Z,94407.22
2018-02-13T14:21:51.381Z,94407.34
2018-02-13T14:24:19.776Z,94404.02
2018-02-13T14:26:48.206Z,94398.34
2018-02-13T14:29:16.592Z,94407.04
2018-02-13T14:31:45.013Z,94393.89
2018-02-13T14:34:13.469Z,94400.45
2018-02-13T14:36:41.963Z,94398.50
2018-02-13T14:39:10.399Z,94393.70
2018-02-13T14:41:38.799Z,94390.31
2018-02-13T14:44:07.223Z,94398.55
2018-02-13T14:46:35.752Z,94395.62
2018-02-13T14:49:04.167Z,94391.88
2018-02-13T14:51:32.569Z,94387.95
2018-02-13T14:54:00.952Z,94392.13
2018-02-13T14:56:29.363Z,94383.14
2018-02-13T14:58:57.848Z,94388.20
2018-02-13T15:01:26.366Z,94395.98
2018-02-13T15:03:54.773Z,94391.89
2018-02-13T15:06:23.182Z,94401.55
2018-02-13T15:08:51.581Z,94402.00
2018-02-13T15:11:20.038Z,94396.47
2018-02-13T15:13:48.446Z,94396.06
2018-02-13T15:16:16.830Z,94384.23
2018-02-13T15:18:45.267Z,94387.83
2018-02-13T15:21:13.652Z,94381.67
2018-02-13T15:23:42.079Z,94378.08
2018-02-13T15:26:10.666Z,94379.23
2018-02-13T15:28:39.254Z,94380.34
2018-02-13T15:31:07.707Z,94377.07
2018-02-13T15:33:36.048Z,94381.29
2018-02-13T15:36:04.448Z,94380.70
2018-02-13T15:38:32.852Z,94384.47
2018-02-13T15:41:01.413Z,94379.89
2018-02-13T15:43:29.833Z,94372.45
2018-02-13T15:45:58.212Z,94383.70
2018-02-13T15:48:26.607Z,94380.53
2018-02-13T15:50:54.986Z,94371.62
2018-02-13T15:53:23.462Z,94377.57
2018-02-13T15:55:51.867Z,94368.14
2018-02-13T15:58:20.282Z,94380.83
2018-02-13T16:00:48.657Z,94378.04
2018-02-13T16:03:17.072Z,94378.31
2018-02-13T16:05:45.553Z,94376.66
2018-02-13T16:08:13.939Z,94372.52
2018-02-13T16:10:42.383Z,94390.15
2018-02-13T16:13:10.801Z,94387.92
2018-02-13T16:15:39.217Z,94379.66
2018-02-13T16:18:07.625Z,94383.73
2018-02-13T16:20:36.042Z,94396.66
2018-02-13T16:23:04.502Z,94390.77
2018-02-13T16:25:32.887Z,94390.70
2018-02-13T16:28:01.413Z,94382.59
2018-02-13T16:30:29.827Z,94382.44
2018-02-13T16:32:58.228Z,94392.09
2018-02-13T16:35:26.865Z,94379.18
2018-02-13T16:37:55.265Z,94382.88
2018-02-13T16:40:23.673Z,94386.08
2018-02-13T16:42:53.980Z,94388.53
2018-02-13T16:45:22.382Z,94393.09
2018-02-13T16:47:50.770Z,94392.70
2018-02-13T16:50:19.166Z,94391.19
2018-02-13T16:52:47.666Z,94394.23
2018-02-13T16:55:16.046Z,94397.38
2018-02-13T16:57:44.612Z,94395.06
2018-02-13T17:00:13.004Z,94394.50
2018-02-13T17:02:41.414Z,94393.06
2018-02-13T17:05:09.897Z,94398.11
2018-02-13T17:07:38.305Z,94407.50
2018-02-13T17:10:06.770Z,94403.27
2018-02-13T17:12:35.219Z,94401.91
2018-02-13T17:15:03.679Z,94399.80
2018-02-13T17:17:32.097Z,94403.80
2018-02-13T17:20:00.522Z,94402.56
2018-02-13T17:22:28.995Z,94400.78
2018-02-13T17:24:57.418Z,94405.55
2018-02-13T17:27:25.797Z,94405.11
2018-02-13T17:29:54.181Z,94396.69
2018-02-13T17:32:22.588Z,94401.98
2018-02-13T17:34:51.060Z,94397.76
2018-02-13T17:37:20.604Z,94399.77
2018-02-13T17:39:49.091Z,94407.64
2018-02-13T17:42:17.473Z,94404.04
2018-02-13T17:44:46.103Z,94400.93
2018-02-13T17:47:14.702Z,94412.06
2018-02-13T17:49:43.119Z,94396.60
2018-02-13T17:52:11.512Z,94409.44
2018-02-13T17:54:39.913Z,94398.80
2018-02-13T17:57:08.317Z,94401.08
2018-02-13T17:59:36.898Z,94396.55
2018-02-13T18:02:05.398Z,94397.36
2018-02-13T18:04:33.781Z,94403.25
2018-02-13T18:07:02.169Z,94399.77
2018-02-13T18:09:30.557Z,94400.28
2018-02-13T18:11:59.122Z,94403.46
2018-02-13T18:14:27.519Z,94401.18
2018-02-13T18:16:55.950Z,94405.50
2018-02-13T18:19:24.364Z,94411.03
2018-02-13T18:21:52.782Z,94411.30
2018-02-13T18:24:21.997Z,94408.24
2018-02-13T18:26:50.474Z,94406.33
2018-02-13T18:29:19.063Z,94412.42
2018-02-13T18:31:47.502Z,94408.64
2018-02-13T18:34:15.962Z,94410.62
2018-02-13T18:36:44.369Z,94412.48
2018-02-13T18:39:12.778Z,94412.83
2018-02-13T18:41:41.523Z,94411.38
2018-02-13T18:44:09.914Z,94415.39
2018-02-13T18:46:38.460Z,94413.34
2018-02-13T18:49:06.856Z,94423.65
2018-02-13T18:51:35.249Z,94417.00
2018-02-13T18:54:03.796Z,94414.50
2018-02-13T18:56:32.195Z,94424.20
2018-02-13T18:59:00.612Z,94424.56
2018-02-13T19:01:29.013Z,94424.29
2018-02-13T19:03:57.414Z,94423.14
2018-02-13T19:06:25.982Z,94425.85
2018-02-13T19:08:54.351Z,94423.80
2018-02-13T19:11:22.744Z,94426.99
2018-02-13T19:13:51.246Z,94433.22
2018-02-13T19:16:19.644Z,94438.42
2018-02-13T19:18:48.693Z,94439.06
2018-02-13T19:21:17.224Z,94435.41
2018-02-13T19:23:45.703Z,94438.59
2018-02-13T19:26:14.143Z,94437.79
2018-02-13T19:28:42.542Z,94441.84
2018-02-13T19:31:10.963Z,94447.73
2018-02-13T19:33:39.439Z,94444.97
2018-02-13T19:36:07.907Z,94439.89
2018-02-13T19:38:36.328Z,94442.16
2018-02-13T19:41:04.793Z,94450.30
2018-02-13T19:43:33.194Z,94442.91
2018-02-13T19:46:01.726Z,94446.73
2018-02-13T19:48:30.678Z,94447.92
2018-02-13T19:50:59.130Z,94452.16
2018-02-13T19:53:27.560Z,94438.97
2018-02-13T19:55:55.952Z,94437.72
2018-02-13T19:58:24.341Z,94442.92
2018-02-13T20:00:52.777Z,94448.25
2018-02-13T20:03:21.248Z,94445.85
2018-02-13T20:05:49.643Z,94441.16
2018-02-13T20:08:18.106Z,94437.70
2018-02-13T20:10:49.179Z,94453.42
2018-02-13T20:13:17.683Z,94451.97
2018-02-13T20:15:46.090Z,94451.25
2018-02-13T20:18:14.503Z,94455.91
2018-02-13T20:20:42.913Z,94448.17
2018-02-13T20:23:11.317Z,94463.59
2018-02-13T20:25:39.702Z,94460.38
2018-02-13T20:28:08.094Z,94451.27
2018-02-13T20:30:36.575Z,94461.51
2018-02-13T20:33:04.972Z,94456.12
2018-02-13T20:35:33.464Z,94455.30
2018-02-13T20:38:01.858Z,94457.01
2018-02-13T20:40:31.007Z,94449.02
2018-02-13T20:42:59.430Z,94450.98
2018-02-13T20:45:27.834Z,94445.37
2018-02-13T20:47:57.021Z,94455.77
2018-02-13T20:50:25.412Z,94453.87
2018-02-13T20:52:53.805Z,94451.91
2018-02-13T20:55:22.236Z,94449.73
2018-02-13T20:57:50.639Z,94463.12
2018-02-13T21:00:19.119Z,94463.53
2018-02-13T21:02:47.542Z,94465.42
2018-02-13T21:05:15.938Z,94465.14
2018-02-13T21:07:44.359Z,94466.78
2018-02-13T21:10:12.787Z,94469.11
2018-02-13T21:12:41.376Z,94474.16
2018-02-13T21:15:09.850Z,94469.62
2018-02-13T21:17:38.240Z,94468.19
2018-02-13T21:20:21.775Z,94468.01
2018-02-13T21:22:50.239Z,94461.05
2018-02-13T21:25:18.652Z,94465.38
2018-02-13T21:27:47.095Z,94468.16
2018-02-13T21:30:15.528Z,94475.87
2018-02-13T21:32:43.923Z,94473.83
2018-02-13T21:35:12.433Z,94468.47
2018-02-13T21:37:40.831Z,94469.53
2018-02-13T21:40:09.230Z,94468.25
2018-02-13T21:42:37.651Z,94466.16
2018-02-13T21:45:06.302Z,94470.25
2018-02-13T21:47:34.726Z,94471.92
2018-02-13T21:50:03.125Z,94468.03
2018-02-13T21:52:31.531Z,94464.92
2018-02-13T21:54:59.947Z,94467.89
2018-02-13T21:57:28.439Z,94471.14
2018-02-13T21:59:56.815Z,94457.27
2018-02-13T22:02:25.215Z,94459.94
2018-02-13T22:04:53.617Z,94466.55
2018-02-13T22:07:22.104Z,94458.49
2018-02-13T22:09:50.837Z,94458.64
2018-02-13T22:12:19.232Z,94455.03
2018-02-13T22:14:47.635Z,94457.72
2018-02-13T22:17:16.014Z,94456.68
2018-02-13T22:19:44.389Z,94455.46
2018-02-13T22:22:12.922Z,94452.14
2018-02-13T22:24:41.328Z,94465.35
2018-02-13T22:27:09.726Z,94464.04
2018-02-13T22:29:38.094Z,94461.73
2018-02-13T22:32:06.622Z,94468.33
2018-02-13T22:34:35.049Z,94458.69
2018-02-13T22:37:03.428Z,94466.20
2018-02-13T22:39:31.847Z,94464.26
2018-02-13T22:42:00.350Z,94468.45
2018-02-13T22:44:28.743Z,94471.91
2018-02-13T22:46:57.280Z,94472.89
2018-02-13T22:49:25.677Z,94473.98
2018-02-13T22:51:54.082Z,94477.63
2018-02-13T22:54:22.481Z,94479.58
2018-02-13T22:56:50.876Z,94477.14
2018-02-13T22:59:19.373Z,94483.89
2018-02-13T23:01:47.871Z,94481.14
2018-02-13T23:04:16.262Z,94483.50
2018-02-13T23:06:44.754Z,94485.37
2018-02-13T23:09:13.375Z,94484.45
2018-02-13T23:11:42.277Z,94483.36
2018-02-13T23:14:10.690Z,94482.46
2018-02-13T23:16:39.092Z,94485.40
2018-02-13T23:19:07.572Z,94485.02
2018-02-13T23:21:36.031Z,94483.54
2018-02-13T23:24:04.504Z,94484.77
2018-02-13T23:26:32.892Z,94488.66
2018-02-13T23:29:01.296Z,94481.89
2018-02-13T23:31:29.839Z,94481.50
2018-02-13T23:33:58.300Z,94482.31
2018-02-13T23:36:26.659Z,94482.67
2018-02-13T23:38:55.092Z,94482.18
2018-02-13T23:41:23.502Z,94479.06
2018-02-13T23:43:51.991Z,94483.95
2018-02-13T23:46:20.406Z,94486.45
2018-02-13T23:48:48.884Z,94492.10
2018-02-13T23:51:17.279Z,94487.70
2018-02-13T23:53:45.751Z,94485.37
2018-02-13T23:56:14.139Z,94490.43
2018-02-13T23:58:42.529Z,94496.48
